Time;durP1;ratioP1;P1;durP2;ratioP2;P2;SDS_P1;SDS_P2;PMS_P1;PMS_P2;Temp;Humidity;BMP_temperature;BMP_pressure;BME280_temperature;BME280_humidity;BME280_pressure;Samples;Min_cycle;Max_cycle;Signal;HPM_P1;HPM_P2
2022/01/20 00:02:58;;;;;;;11.80;7.03;;;;;;;;;;10490757;28;20033;-63
2022/01/20 00:08:13;;;;;;;12.20;6.60;;;;;;;;;;10488119;28;20107;-63
2022/01/20 00:28:58;;;;;;;13.77;6.88;;;;;;;;;;10491613;28;20415;-64
2022/01/20 00:39:08;;;;;;;11.65;6.75;;;;;;;;;;10491585;28;20063;-63
2022/01/20 00:44:09;;;;;;;11.77;6.82;;;;;;;;;;10490818;28;20037;-63
2022/01/20 00:49:09;;;;;;;12.20;6.70;;;;;;;;;;10491348;28;20021;-63
2022/01/20 00:54:09;;;;;;;11.67;6.47;;;;;;;;;;10490626;28;20509;-63
2022/01/20 00:59:10;;;;;;;12.00;7.23;;;;;;;;;;10489937;28;20025;-65
2022/01/20 01:04:10;;;;;;;15.40;7.87;;;;;;;;;;10490034;28;20580;-62
2022/01/20 01:09:11;;;;;;;12.23;7.80;;;;;;;;;;10492332;28;20479;-62
2022/01/20 01:14:12;;;;;;;10.70;7.32;;;;;;;;;;10494603;28;20104;-62
2022/01/20 01:24:35;;;;;;;9.60;7.22;;;;;;;;;;10497409;28;20400;-63
2022/01/20 01:34:50;;;;;;;10.40;6.97;;;;;;;;;;10497370;28;20103;-62
2022/01/20 01:39:50;;;;;;;9.38;7.07;;;;;;;;;;10497530;28;20034;-61
2022/01/20 01:44:52;;;;;;;10.13;7.15;;;;;;;;;;10496696;28;20032;-62
2022/01/20 01:49:53;;;;;;;11.38;7.78;;;;;;;;;;10496449;28;20311;-63
2022/01/20 01:54:53;;;;;;;12.00;7.53;;;;;;;;;;10496519;28;20608;-63
2022/01/20 01:59:54;;;;;;;9.60;7.10;;;;;;;;;;10495441;28;20513;-62
2022/01/20 02:04:55;;;;;;;11.45;7.20;;;;;;;;;;10495830;28;20036;-62
2022/01/20 02:20:17;;;;;;;11.65;7.45;;;;;;;;;;10496606;28;20028;-61
2022/01/20 02:25:27;;;;;;;9.82;7.28;;;;;;;;;;10491075;28;20488;-61
2022/01/20 02:30:28;;;;;;;11.98;7.35;;;;;;;;;;10495373;28;20128;-62
2022/01/20 02:35:32;;;;;;;9.23;7.35;;;;;;;;;;10494127;28;20059;-60
2022/01/20 02:45:42;;;;;;;10.77;7.25;;;;;;;;;;10494363;28;20028;-62
2022/01/20 02:50:42;;;;;;;11.57;7.53;;;;;;;;;;10494260;28;20037;-63
2022/01/20 02:55:42;;;;;;;12.38;6.97;;;;;;;;;;10492782;28;20445;-62
2022/01/20 03:00:43;;;;;;;10.43;7.53;;;;;;;;;;10494214;28;20424;-61
2022/01/20 03:05:43;;;;;;;10.32;6.95;;;;;;;;;;10493843;28;20469;-63
2022/01/20 03:10:44;;;;;;;15.55;6.80;;;;;;;;;;10493885;28;20387;-63
2022/01/20 03:15:45;;;;;;;11.50;7.22;;;;;;;;;;10493361;28;20091;-64
2022/01/20 03:20:45;;;;;;;11.40;7.25;;;;;;;;;;10493627;28;20025;-64
2022/01/20 03:25:45;;;;;;;10.23;7.10;;;;;;;;;;10486154;28;20160;-62
2022/01/20 03:30:46;;;;;;;15.13;7.40;;;;;;;;;;10492442;28;20965;-61
2022/01/20 03:35:47;;;;;;;11.63;8.00;;;;;;;;;;10490656;28;20454;-61
2022/01/20 03:40:49;;;;;;;11.98;7.80;;;;;;;;;;10492679;28;20529;-61
2022/01/20 03:45:55;;;;;;;12.57;7.38;;;;;;;;;;10491709;28;20368;-61
2022/01/20 03:51:02;;;;;;;11.07;7.65;;;;;;;;;;10491851;28;20035;-61
2022/01/20 03:56:03;;;;;;;13.05;8.27;;;;;;;;;;10491738;28;20107;-64
2022/01/20 04:01:04;;;;;;;14.77;8.13;;;;;;;;;;10492541;28;20032;-64
2022/01/20 04:06:04;;;;;;;13.77;8.17;;;;;;;;;;10491475;28;20055;-63
2022/01/20 04:11:13;;;;;;;11.85;8.60;;;;;;;;;;10491613;28;20499;-64
2022/01/20 04:16:17;;;;;;;;;;;;;;;;;;10491122;28;20027;-64
2022/01/20 04:21:20;;;;;;;11.20;7.75;;;;;;;;;;10490771;28;19952;-64
2022/01/20 04:26:22;;;;;;;9.75;7.47;;;;;;;;;;10487897;28;20440;-64
2022/01/20 04:31:24;;;;;;;12.30;7.82;;;;;;;;;;10487584;28;20522;-63
2022/01/20 04:36:25;;;;;;;11.55;7.75;;;;;;;;;;10490623;28;20036;-61
2022/01/20 04:41:29;;;;;;;11.32;7.78;;;;;;;;;;10489854;28;20035;-61
2022/01/20 04:46:45;;;;;;;13.52;8.70;;;;;;;;;;10495835;28;20036;-62
2022/01/20 04:57:19;;;;;;;13.65;8.50;;;;;;;;;;10499175;28;20040;-63
2022/01/20 05:02:21;;;;;;;12.88;8.60;;;;;;;;;;10498216;28;20438;-64
2022/01/20 05:07:27;;;;;;;13.35;7.90;;;;;;;;;;10498190;28;20106;-63
2022/01/20 05:12:39;;;;;;;16.90;9.27;;;;;;;;;;10497723;28;20078;-63
2022/01/20 05:17:40;;;;;;;14.25;8.18;;;;;;;;;;10497807;28;20361;-63
2022/01/20 05:22:40;;;;;;;14.53;8.50;;;;;;;;;;10497235;28;20135;-61
2022/01/20 05:27:40;;;;;;;16.23;9.33;;;;;;;;;;10497904;28;20441;-61
2022/01/20 05:32:41;;;;;;;12.47;8.67;;;;;;;;;;10493599;28;20025;-62
2022/01/20 05:37:41;;;;;;;14.40;7.70;;;;;;;;;;10494045;28;20433;-62
2022/01/20 05:42:41;;;;;;;14.30;9.10;;;;;;;;;;10496528;28;20488;-62
2022/01/20 05:47:47;;;;;;;14.57;8.33;;;;;;;;;;10496666;28;20025;-62
2022/01/20 05:52:47;;;;;;;14.05;8.73;;;;;;;;;;10495698;28;20063;-62
2022/01/20 05:57:48;;;;;;;12.73;8.77;;;;;;;;;;10495805;28;20089;-63
2022/01/20 06:08:09;;;;;;;11.48;8.20;;;;;;;;;;10495462;28;20548;-61
2022/01/20 06:13:10;;;;;;;14.27;9.10;;;;;;;;;;10493960;28;20044;-63
2022/01/20 06:18:10;;;;;;;13.25;8.80;;;;;;;;;;10494190;28;20028;-62
2022/01/20 06:23:11;;;;;;;15.13;8.23;;;;;;;;;;10494807;28;20051;-61
2022/01/20 06:28:12;;;;;;;13.88;8.52;;;;;;;;;;10496118;28;20356;-62
2022/01/20 06:33:12;;;;;;;17.20;8.57;;;;;;;;;;10494774;28;20150;-63
2022/01/20 06:38:12;;;;;;;19.55;8.43;;;;;;;;;;10491287;28;20364;-62
2022/01/20 06:43:13;;;;;;;13.40;8.68;;;;;;;;;;10494847;28;20120;-66
2022/01/20 06:48:13;;;;;;;14.33;9.20;;;;;;;;;;10490878;28;20108;-64
2022/01/20 06:53:14;;;;;;;18.73;9.27;;;;;;;;;;10493989;28;20437;-63
2022/01/20 06:58:14;;;;;;;23.60;10.23;;;;;;;;;;10493615;28;20430;-62
2022/01/20 07:03:14;;;;;;;16.25;9.27;;;;;;;;;;10493404;28;20509;-63
2022/01/20 07:08:15;;;;;;;16.00;9.30;;;;;;;;;;10492042;28;20266;-63
2022/01/20 07:13:15;;;;;;;21.05;9.85;;;;;;;;;;10491252;28;20437;-63
2022/01/20 07:18:16;;;;;;;32.83;10.33;;;;;;;;;;10491813;28;20202;-63
2022/01/20 07:23:17;;;;;;;25.80;10.45;;;;;;;;;;10491113;28;20470;-62
2022/01/20 07:28:17;;;;;;;32.40;10.57;;;;;;;;;;10491111;28;20468;-62
2022/01/20 07:33:19;;;;;;;27.27;10.32;;;;;;;;;;10491616;28;20078;-62
2022/01/20 07:38:20;;;;;;;31.17;9.98;;;;;;;;;;10491474;28;20020;-62
2022/01/20 07:43:20;;;;;;;31.25;10.80;;;;;;;;;;10485569;28;20036;-62
2022/01/20 07:48:21;;;;;;;30.02;9.95;;;;;;;;;;10483373;28;20032;-61
2022/01/20 07:53:21;;;;;;;27.45;9.23;;;;;;;;;;10491780;28;20039;-62
2022/01/20 07:58:22;;;;;;;36.13;10.75;;;;;;;;;;10487316;28;20032;-62
2022/01/20 08:03:22;;;;;;;30.50;9.50;;;;;;;;;;10491275;28;20347;-62
2022/01/20 08:08:22;;;;;;;29.25;10.30;;;;;;;;;;10491338;28;20453;-61
2022/01/20 08:13:23;;;;;;;28.77;10.23;;;;;;;;;;10491094;28;20459;-61
2022/01/20 08:18:23;;;;;;;24.50;10.10;;;;;;;;;;10489975;28;20506;-61
2022/01/20 08:23:23;;;;;;;25.60;10.40;;;;;;;;;;10488710;28;20518;-61
2022/01/20 08:28:24;;;;;;;24.60;10.83;;;;;;;;;;10490145;28;20182;-62
2022/01/20 08:33:24;;;;;;;23.77;9.40;;;;;;;;;;10489459;28;20027;-62
2022/01/20 08:38:25;;;;;;;22.38;9.70;;;;;;;;;;10488213;28;20036;-62
2022/01/20 08:43:25;;;;;;;29.40;9.85;;;;;;;;;;10491147;28;20097;-62
2022/01/20 08:48:25;;;;;;;30.37;9.47;;;;;;;;;;10490667;28;20480;-62
2022/01/20 08:53:26;;;;;;;21.08;9.73;;;;;;;;;;10491065;28;20805;-62
2022/01/20 08:58:26;;;;;;;26.67;9.50;;;;;;;;;;10487431;28;20048;-62
2022/01/20 09:03:27;;;;;;;27.63;9.52;;;;;;;;;;10490221;28;20522;-62
2022/01/20 09:08:27;;;;;;;26.48;9.02;;;;;;;;;;10486691;28;20043;-62
2022/01/20 09:18:46;;;;;;;;;;;;;;;;;;10489707;28;20398;-62
2022/01/20 09:23:47;;;;;;;22.88;9.98;;;;;;;;;;10488825;28;19917;-62
2022/01/20 09:28:47;;;;;;;17.45;9.02;;;;;;;;;;10488651;28;20395;-62
2022/01/20 09:33:48;;;;;;;21.02;9.32;;;;;;;;;;10495987;28;20048;-62
2022/01/20 09:38:49;;;;;;;19.73;9.18;;;;;;;;;;10497472;28;20024;-63
2022/01/20 09:43:51;;;;;;;22.60;9.25;;;;;;;;;;10494598;28;20480;-62
2022/01/20 09:48:52;;;;;;;23.75;10.43;;;;;;;;;;10492546;28;20349;-62
2022/01/20 09:53:52;;;;;;;17.92;8.75;;;;;;;;;;10493111;28;20028;-62
2022/01/20 09:58:52;;;;;;;31.85;9.32;;;;;;;;;;10493666;28;20031;-62
2022/01/20 10:03:53;;;;;;;21.55;9.63;;;;;;;;;;10493331;28;20029;-62
2022/01/20 10:09:01;;;;;;;18.23;9.75;;;;;;;;;;10491789;28;20057;-62
2022/01/20 10:14:05;;;;;;;16.65;9.57;;;;;;;;;;10495294;28;20380;-62
2022/01/20 10:19:07;;;;;;;16.73;8.98;;;;;;;;;;10490028;28;20031;-62
2022/01/20 10:24:10;;;;;;;17.38;9.02;;;;;;;;;;10493409;28;20135;-62
2022/01/20 10:29:12;;;;;;;16.55;8.82;;;;;;;;;;10494846;28;20034;-62
2022/01/20 10:34:19;;;;;;;22.52;10.30;;;;;;;;;;10492665;28;20376;-62
2022/01/20 10:39:27;;;;;;;17.90;9.88;;;;;;;;;;10493149;28;20027;-62
2022/01/20 10:44:28;;;;;;;15.63;9.07;;;;;;;;;;10495138;28;20047;-62
2022/01/20 10:49:31;;;;;;;18.00;9.20;;;;;;;;;;10494360;28;20484;-62
2022/01/20 10:54:40;;;;;;;14.18;9.07;;;;;;;;;;10494277;28;20550;-62
2022/01/20 11:00:08;;;;;;;17.35;9.15;;;;;;;;;;10494735;28;20032;-62
2022/01/20 11:05:10;;;;;;;15.98;9.35;;;;;;;;;;10491994;28;20484;-62
2022/01/20 11:10:11;;;;;;;23.05;11.40;;;;;;;;;;10494143;28;20035;-62
2022/01/20 11:15:15;;;;;;;18.05;11.10;;;;;;;;;;10491072;28;20027;-62
2022/01/20 11:20:25;;;;;;;18.75;10.63;;;;;;;;;;10492503;28;20444;-62
2022/01/20 11:25:28;;;;;;;17.90;11.40;;;;;;;;;;10487821;28;20072;-63
2022/01/20 11:30:29;;;;;;;17.35;11.50;;;;;;;;;;10491939;28;20551;-62
2022/01/20 11:35:40;;;;;;;21.27;10.95;;;;;;;;;;10491862;28;20056;-62
2022/01/20 11:40:58;;;;;;;16.83;11.60;;;;;;;;;;10491963;28;20031;-63
2022/01/20 11:46:11;;;;;;;17.08;11.52;;;;;;;;;;10491552;28;20590;-63
2022/01/20 11:51:11;;;;;;;14.70;9.98;;;;;;;;;;10492045;28;20056;-63
2022/01/20 11:56:12;;;;;;;21.33;10.80;;;;;;;;;;10491315;28;20060;-63
2022/01/20 12:01:12;;;;;;;17.27;10.80;;;;;;;;;;10492197;28;20031;-63
2022/01/20 12:06:15;;;;;;;15.27;10.38;;;;;;;;;;10491716;28;20512;-62
2022/01/20 12:11:16;;;;;;;17.85;10.82;;;;;;;;;;10492463;28;20082;-63
2022/01/20 12:16:21;;;;;;;20.73;11.35;;;;;;;;;;10491360;28;20103;-63
2022/01/20 12:21:22;;;;;;;14.55;11.10;;;;;;;;;;10490594;28;20032;-62
2022/01/20 12:26:23;;;;;;;15.63;10.52;;;;;;;;;;10488081;28;20028;-62
2022/01/20 12:31:23;;;;;;;18.48;10.50;;;;;;;;;;10487703;28;20032;-62
2022/01/20 12:36:24;;;;;;;15.67;9.83;;;;;;;;;;10489918;28;20028;-62
2022/01/20 12:41:24;;;;;;;18.43;10.40;;;;;;;;;;10490762;28;20452;-62
2022/01/20 12:46:28;;;;;;;16.88;10.73;;;;;;;;;;10490726;28;20629;-62
2022/01/20 12:51:37;;;;;;;14.32;10.38;;;;;;;;;;10490464;28;20476;-62
2022/01/20 12:56:41;;;;;;;16.15;10.02;;;;;;;;;;10491201;28;20036;-62
2022/01/20 13:01:44;;;;;;;19.77;10.57;;;;;;;;;;10490908;28;20035;-62
2022/01/20 13:06:52;;;;;;;14.85;9.70;;;;;;;;;;10494520;28;20112;-62
2022/01/20 13:11:58;;;;;;;14.00;10.43;;;;;;;;;;10496857;28;20445;-62
2022/01/20 13:16:58;;;;;;;14.43;10.15;;;;;;;;;;10498271;28;20430;-62
2022/01/20 13:22:00;;;;;;;16.55;10.68;;;;;;;;;;10496400;28;20044;-61
2022/01/20 13:27:01;;;;;;;18.60;10.05;;;;;;;;;;10494506;28;20129;-61
2022/01/20 13:32:02;;;;;;;19.77;11.05;;;;;;;;;;10497689;28;20036;-61
2022/01/20 13:37:04;;;;;;;18.55;10.70;;;;;;;;;;10494162;28;20028;-61
2022/01/20 13:42:29;;;;;;;17.08;9.95;;;;;;;;;;10494177;28;20024;-62
2022/01/20 13:47:29;;;;;;;23.38;11.15;;;;;;;;;;10497287;28;20027;-61
2022/01/20 13:52:38;;;;;;;12.73;9.33;;;;;;;;;;10494699;28;20032;-61
2022/01/20 13:57:41;;;;;;;14.90;10.55;;;;;;;;;;10495892;28;20425;-61
2022/01/20 14:02:47;;;;;;;14.45;9.13;;;;;;;;;;10497212;28;20306;-61
2022/01/20 14:07:48;;;;;;;16.85;9.15;;;;;;;;;;10496267;28;20024;-61
2022/01/20 14:12:48;;;;;;;18.53;9.73;;;;;;;;;;10495709;28;20515;-61
2022/01/20 14:17:52;;;;;;;13.38;9.05;;;;;;;;;;10494825;28;20549;-62
2022/01/20 14:22:53;;;;;;;14.23;8.68;;;;;;;;;;10493154;28;20049;-61
2022/01/20 14:27:55;;;;;;;14.73;9.45;;;;;;;;;;10492733;28;20487;-62
2022/01/20 14:32:55;;;;;;;11.88;8.93;;;;;;;;;;10495344;28;20028;-62
2022/01/20 14:37:57;;;;;;;13.48;8.35;;;;;;;;;;10490070;28;20044;-62
2022/01/20 14:42:58;;;;;;;15.68;8.55;;;;;;;;;;10493173;28;20056;-61
2022/01/20 14:47:59;;;;;;;15.02;8.77;;;;;;;;;;10489736;28;20054;-61
2022/01/20 14:53:00;;;;;;;12.38;8.15;;;;;;;;;;10493139;28;20028;-62
2022/01/20 14:58:00;;;;;;;12.50;8.60;;;;;;;;;;10493464;28;20028;-61
2022/01/20 15:03:00;;;;;;;16.63;8.67;;;;;;;;;;10492831;28;20898;-63
2022/01/20 15:08:01;;;;;;;20.38;9.95;;;;;;;;;;10492268;28;20391;-61
2022/01/20 15:13:02;;;;;;;51.42;12.20;;;;;;;;;;10491949;28;20028;-67
2022/01/20 15:18:03;;;;;;;82.45;13.52;;;;;;;;;;10492229;28;20032;-63
2022/01/20 15:23:05;;;;;;;59.88;12.05;;;;;;;;;;10491855;28;20064;-63
2022/01/20 15:28:05;;;;;;;55.83;11.70;;;;;;;;;;10492229;28;20072;-63
2022/01/20 15:33:05;;;;;;;41.00;11.10;;;;;;;;;;10492660;28;20036;-62
2022/01/20 15:38:06;;;;;;;32.00;10.17;;;;;;;;;;10490068;28;20033;-67
2022/01/20 15:43:06;;;;;;;28.40;10.43;;;;;;;;;;10491832;28;20552;-68
2022/01/20 15:48:07;;;;;;;46.55;11.02;;;;;;;;;;10489366;28;20024;-67
2022/01/20 15:53:07;;;;;;;45.40;10.45;;;;;;;;;;10492641;28;20024;-65
2022/01/20 15:58:08;;;;;;;33.70;9.90;;;;;;;;;;10489032;28;20085;-65
2022/01/20 16:03:08;;;;;;;32.88;10.32;;;;;;;;;;10491266;28;20468;-65
2022/01/20 16:08:08;;;;;;;24.45;10.38;;;;;;;;;;10491859;28;20028;-65
2022/01/20 16:13:09;;;;;;;27.75;10.52;;;;;;;;;;10491576;28;20102;-65
2022/01/20 16:18:16;;;;;;;26.38;9.73;;;;;;;;;;10491292;28;20032;-65
2022/01/20 16:23:17;;;;;;;23.45;9.52;;;;;;;;;;10491107;28;20128;-65
2022/01/20 16:28:17;;;;;;;15.80;9.50;;;;;;;;;;10491736;28;20383;-65
2022/01/20 16:33:18;;;;;;;20.07;9.70;;;;;;;;;;10491246;28;20071;-65
2022/01/20 16:38:18;;;;;;;20.27;9.60;;;;;;;;;;10491409;28;20434;-66
2022/01/20 16:43:19;;;;;;;13.95;9.18;;;;;;;;;;10499318;28;20040;-66
2022/01/20 16:48:21;;;;;;;17.13;10.13;;;;;;;;;;10499330;28;20024;-66
2022/01/20 16:53:22;;;;;;;18.60;10.60;;;;;;;;;;10498686;28;20537;-66
2022/01/20 16:58:23;;;;;;;17.92;10.10;;;;;;;;;;10495772;28;20138;-66
2022/01/20 17:03:23;;;;;;;18.35;9.73;;;;;;;;;;10498498;28;20451;-66
2022/01/20 17:08:24;;;;;;;16.20;9.30;;;;;;;;;;10494930;28;20107;-66
2022/01/20 17:13:25;;;;;;;17.98;8.90;;;;;;;;;;10496881;28;20450;-66
2022/01/20 17:18:25;;;;;;;13.60;9.05;;;;;;;;;;10497918;28;20033;-66
2022/01/20 17:23:28;;;;;;;17.17;9.77;;;;;;;;;;10496164;28;20443;-66
2022/01/20 17:28:29;;;;;;;15.38;8.88;;;;;;;;;;10496013;28;20372;-66
2022/01/20 17:33:29;;;;;;;15.60;9.00;;;;;;;;;;10496423;28;20032;-66
2022/01/20 17:38:29;;;;;;;14.37;9.57;;;;;;;;;;10496116;28;20356;-67
2022/01/20 17:43:30;;;;;;;18.00;9.43;;;;;;;;;;10495474;28;20892;-66
2022/01/20 17:48:31;;;;;;;13.95;8.77;;;;;;;;;;10496618;28;20025;-66
2022/01/20 17:53:31;;;;;;;14.20;8.55;;;;;;;;;;10494004;28;20021;-66
2022/01/20 17:58:32;;;;;;;15.57;8.82;;;;;;;;;;10495896;28;20088;-67
2022/01/20 18:03:32;;;;;;;15.90;8.53;;;;;;;;;;10493794;28;20032;-66
2022/01/20 18:08:32;;;;;;;12.70;8.77;;;;;;;;;;10489371;28;20495;-67
2022/01/20 18:13:33;;;;;;;14.95;8.68;;;;;;;;;;10494306;28;20442;-67
2022/01/20 18:18:33;;;;;;;14.43;9.30;;;;;;;;;;10494722;28;20028;-61
2022/01/20 18:23:34;;;;;;;14.38;9.43;;;;;;;;;;10493349;28;20469;-63
2022/01/20 18:28:35;;;;;;;16.45;10.43;;;;;;;;;;10491769;28;20029;-64
2022/01/20 18:33:35;;;;;;;23.83;10.45;;;;;;;;;;10493799;28;20016;-65
2022/01/20 18:38:36;;;;;;;13.60;10.25;;;;;;;;;;10493471;28;20020;-64
2022/01/20 18:43:37;;;;;;;16.40;11.18;;;;;;;;;;10494237;28;20325;-65
2022/01/20 18:48:37;;;;;;;19.03;11.70;;;;;;;;;;10493282;28;20391;-64
2022/01/20 18:53:38;;;;;;;19.77;11.10;;;;;;;;;;10493955;28;20458;-63
2022/01/20 18:58:42;;;;;;;16.33;10.90;;;;;;;;;;10493467;28;20040;-65
2022/01/20 19:03:42;;;;;;;18.50;11.07;;;;;;;;;;10491893;28;20086;-66
2022/01/20 19:08:43;;;;;;;16.73;11.40;;;;;;;;;;10489824;28;20102;-66
2022/01/20 19:13:44;;;;;;;17.38;12.23;;;;;;;;;;10489276;28;20029;-64
2022/01/20 19:18:45;;;;;;;22.87;12.47;;;;;;;;;;10490469;28;20028;-66
2022/01/20 19:23:46;;;;;;;46.80;14.73;;;;;;;;;;10492209;28;20481;-67
2022/01/20 19:28:46;;;;;;;35.30;13.75;;;;;;;;;;10492332;28;20024;-67
2022/01/20 19:33:46;;;;;;;27.40;13.10;;;;;;;;;;10492269;28;20027;-67
2022/01/20 19:38:47;;;;;;;28.77;12.00;;;;;;;;;;10491041;28;20036;-67
2022/01/20 19:43:47;;;;;;;21.35;13.02;;;;;;;;;;10492840;28;20104;-67
2022/01/20 19:48:47;;;;;;;28.17;13.33;;;;;;;;;;10492730;28;20032;-67
2022/01/20 19:53:48;;;;;;;21.67;12.90;;;;;;;;;;10492395;28;20686;-67
2022/01/20 19:58:48;;;;;;;21.70;12.77;;;;;;;;;;10491247;28;20024;-67
2022/01/20 20:03:49;;;;;;;23.42;13.20;;;;;;;;;;10491626;28;20816;-67
2022/01/20 20:08:51;;;;;;;27.45;13.93;;;;;;;;;;10490791;28;20032;-66
2022/01/20 20:13:52;;;;;;;26.25;13.73;;;;;;;;;;10487975;28;20111;-66
2022/01/20 20:18:52;;;;;;;22.05;13.23;;;;;;;;;;10492306;28;20103;-66
2022/01/20 20:23:53;;;;;;;22.30;13.73;;;;;;;;;;10488182;28;20059;-66
2022/01/20 20:28:54;;;;;;;34.80;14.73;;;;;;;;;;10490145;28;20066;-66
2022/01/20 20:33:55;;;;;;;24.98;14.30;;;;;;;;;;10490318;28;20107;-66
2022/01/20 20:39:01;;;;;;;25.37;15.17;;;;;;;;;;10490338;28;20255;-66
2022/01/20 20:44:02;;;;;;;22.77;14.77;;;;;;;;;;10490922;28;20550;-66
2022/01/20 20:49:02;;;;;;;28.15;15.85;;;;;;;;;;10490506;28;20036;-66
2022/01/20 20:54:04;;;;;;;33.53;16.17;;;;;;;;;;10490675;28;20026;-65
2022/01/20 20:59:04;;;;;;;25.02;14.57;;;;;;;;;;10491314;28;20020;-65
2022/01/20 21:04:04;;;;;;;24.93;14.87;;;;;;;;;;10489748;28;20027;-65
2022/01/20 21:09:05;;;;;;;26.33;15.48;;;;;;;;;;10489738;28;20422;-66
2022/01/20 21:14:05;;;;;;;28.67;15.52;;;;;;;;;;10490977;28;20090;-66
2022/01/20 21:19:06;;;;;;;28.63;15.80;;;;;;;;;;10490222;28;20024;-65
2022/01/20 21:24:06;;;;;;;25.53;15.23;;;;;;;;;;10486056;28;20865;-66
2022/01/20 21:29:07;;;;;;;25.80;15.20;;;;;;;;;;10496248;28;20040;-66
2022/01/20 21:34:07;;;;;;;26.90;15.50;;;;;;;;;;10494658;28;20024;-66
2022/01/20 21:39:08;;;;;;;31.08;17.25;;;;;;;;;;10497064;28;20028;-65
2022/01/20 21:44:09;;;;;;;31.45;16.48;;;;;;;;;;10497370;28;20567;-65
2022/01/20 21:49:10;;;;;;;26.92;16.33;;;;;;;;;;10496822;28;20099;-65
2022/01/20 21:54:10;;;;;;;28.98;15.85;;;;;;;;;;10497142;28;20016;-64
2022/01/20 21:59:10;;;;;;;37.50;17.07;;;;;;;;;;10496218;28;20064;-66
2022/01/20 22:04:11;;;;;;;32.13;17.17;;;;;;;;;;10496123;28;20958;-66
2022/01/20 22:09:12;;;;;;;35.42;17.83;;;;;;;;;;10496151;28;20166;-66
2022/01/20 22:14:13;;;;;;;29.65;16.55;;;;;;;;;;10495901;28;20033;-66
2022/01/20 22:19:13;;;;;;;29.73;17.27;;;;;;;;;;10495982;28;20098;-66
2022/01/20 22:24:14;;;;;;;31.13;17.95;;;;;;;;;;10495132;28;20136;-66
2022/01/20 22:29:14;;;;;;;29.30;18.08;;;;;;;;;;10490382;28;20040;-66
2022/01/20 22:34:15;;;;;;;32.97;17.63;;;;;;;;;;10488883;28;20035;-67
2022/01/20 22:39:15;;;;;;;31.90;18.87;;;;;;;;;;10493681;28;20453;-67
2022/01/20 22:44:16;;;;;;;32.35;17.08;;;;;;;;;;10493704;28;20446;-67
2022/01/20 22:49:18;;;;;;;30.23;17.95;;;;;;;;;;10492880;28;20028;-67
2022/01/20 22:54:18;;;;;;;29.92;17.60;;;;;;;;;;10491977;28;20027;-67
2022/01/20 22:59:18;;;;;;;31.43;18.13;;;;;;;;;;10493035;28;20028;-67
2022/01/20 23:04:19;;;;;;;32.80;17.77;;;;;;;;;;10494596;28;20908;-67
2022/01/20 23:09:23;;;;;;;32.67;18.80;;;;;;;;;;10494179;28;20052;-67
2022/01/20 23:14:25;;;;;;;40.53;19.75;;;;;;;;;;10493836;28;20095;-67
2022/01/20 23:24:35;;;;;;;30.85;18.20;;;;;;;;;;10491566;28;20040;-67
2022/01/20 23:29:36;;;;;;;31.60;19.08;;;;;;;;;;10490722;28;20035;-65
2022/01/20 23:34:36;;;;;;;31.13;18.45;;;;;;;;;;10489723;28;20055;-65
2022/01/20 23:39:37;;;;;;;32.33;19.27;;;;;;;;;;10488997;28;20051;-66
2022/01/20 23:44:53;;;;;;;34.22;20.17;;;;;;;;;;10492370;28;20463;-66
2022/01/20 23:49:53;;;;;;;35.90;18.80;;;;;;;;;;10492063;28;20017;-66
2022/01/20 23:54:53;;;;;;;32.83;19.25;;;;;;;;;;10492596;28;20021;-66
2022/01/20 23:59:54;;;;;;;27.50;19.37;;;;;;;;;;10492342;28;20392;-66
